sensor_id;sensor_type;location;lat;lon;timestamp;temperature;humidity
3876;DHT22;1953;51.222;6.624;2022-09-09T00:06:43;17.40;1.00
3876;DHT22;1953;51.222;6.624;2022-09-09T00:11:29;17.40;1.00
3876;DHT22;1953;51.222;6.624;2022-09-09T00:16:18;17.30;1.00
3876;DHT22;1953;51.222;6.624;2022-09-09T00:21:06;17.40;1.00
3876;DHT22;1953;51.222;6.624;2022-09-09T00:25:58;17.30;1.00
3876;DHT22;1953;51.222;6.624;2022-09-09T00:30:42;17.30;1.00
3876;DHT22;1953;51.222;6.624;2022-09-09T00:35:28;17.20;1.00
3876;DHT22;1953;51.222;6.624;2022-09-09T00:40:22;17.30;1.00
3876;DHT22;1953;51.222;6.624;2022-09-09T00:45:16;17.30;1.00
3876;DHT22;1953;51.222;6.624;2022-09-09T00:50:05;17.40;1.00
3876;DHT22;1953;51.222;6.624;2022-09-09T00:54:59;17.40;1.00
3876;DHT22;1953;51.222;6.624;2022-09-09T00:59:47;17.50;1.00
3876;DHT22;1953;51.222;6.624;2022-09-09T01:04:34;17.40;1.00
3876;DHT22;1953;51.222;6.624;2022-09-09T01:09:24;17.40;1.00
3876;DHT22;1953;51.222;6.624;2022-09-09T01:14:16;17.20;1.00
3876;DHT22;1953;51.222;6.624;2022-09-09T01:19:03;17.20;1.00
3876;DHT22;1953;51.222;6.624;2022-09-09T01:24:05;17.10;1.00
3876;DHT22;1953;51.222;6.624;2022-09-09T01:28:53;17.00;1.00
3876;DHT22;1953;51.222;6.624;2022-09-09T01:33:36;17.00;1.00
3876;DHT22;1953;51.222;6.624;2022-09-09T01:38:19;17.00;1.00
3876;DHT22;1953;51.222;6.624;2022-09-09T01:43:01;16.90;1.00
3876;DHT22;1953;51.222;6.624;2022-09-09T01:47:46;17.20;1.00
3876;DHT22;1953;51.222;6.624;2022-09-09T01:52:28;16.90;1.00
3876;DHT22;1953;51.222;6.624;2022-09-09T01:57:17;16.90;1.00
3876;DHT22;1953;51.222;6.624;2022-09-09T02:02:09;17.00;1.00
3876;DHT22;1953;51.222;6.624;2022-09-09T02:06:55;17.00;1.00
3876;DHT22;1953;51.222;6.624;2022-09-09T02:11:39;17.00;1.00
3876;DHT22;1953;51.222;6.624;2022-09-09T02:16:24;16.90;1.00
3876;DHT22;1953;51.222;6.624;2022-09-09T02:21:10;16.90;1.00
3876;DHT22;1953;51.222;6.624;2022-09-09T02:25:58;16.90;1.00
3876;DHT22;1953;51.222;6.624;2022-09-09T02:30:41;16.90;1.00
3876;DHT22;1953;51.222;6.624;2022-09-09T02:35:25;16.90;1.00
3876;DHT22;1953;51.222;6.624;2022-09-09T02:40:12;16.90;1.00
3876;DHT22;1953;51.222;6.624;2022-09-09T02:44:58;17.00;1.00
3876;DHT22;1953;51.222;6.624;2022-09-09T02:49:47;16.90;1.00
3876;DHT22;1953;51.222;6.624;2022-09-09T02:54:33;17.00;1.00
3876;DHT22;1953;51.222;6.624;2022-09-09T02:59:17;17.00;1.00
3876;DHT22;1953;51.222;6.624;2022-09-09T03:04:01;17.10;1.00
3876;DHT22;1953;51.222;6.624;2022-09-09T03:08:46;17.10;1.00
3876;DHT22;1953;51.222;6.624;2022-09-09T03:13:31;17.10;1.00
3876;DHT22;1953;51.222;6.624;2022-09-09T03:18:13;17.10;1.00
3876;DHT22;1953;51.222;6.624;2022-09-09T03:22:58;17.10;1.00
3876;DHT22;1953;51.222;6.624;2022-09-09T03:27:41;17.20;1.00
3876;DHT22;1953;51.222;6.624;2022-09-09T03:32:24;17.20;1.00
3876;DHT22;1953;51.222;6.624;2022-09-09T03:37:06;17.20;1.00
3876;DHT22;1953;51.222;6.624;2022-09-09T03:41:50;17.20;1.00
3876;DHT22;1953;51.222;6.624;2022-09-09T03:46:33;17.10;1.00
3876;DHT22;1953;51.222;6.624;2022-09-09T03:51:15;17.10;1.00
3876;DHT22;1953;51.222;6.624;2022-09-09T03:55:59;16.90;1.00
3876;DHT22;1953;51.222;6.624;2022-09-09T04:00:43;16.90;1.00
3876;DHT22;1953;51.222;6.624;2022-09-09T04:05:26;16.90;1.00
3876;DHT22;1953;51.222;6.624;2022-09-09T04:10:08;16.90;1.00
3876;DHT22;1953;51.222;6.624;2022-09-09T04:14:51;16.90;1.00
3876;DHT22;1953;51.222;6.624;2022-09-09T04:19:35;16.90;1.00
3876;DHT22;1953;51.222;6.624;2022-09-09T04:24:17;16.90;1.00
3876;DHT22;1953;51.222;6.624;2022-09-09T04:29:00;16.90;1.00
3876;DHT22;1953;51.222;6.624;2022-09-09T04:33:42;16.90;1.00
3876;DHT22;1953;51.222;6.624;2022-09-09T04:38:26;17.00;1.00
3876;DHT22;1953;51.222;6.624;2022-09-09T04:43:09;16.90;1.00
3876;DHT22;1953;51.222;6.624;2022-09-09T04:47:52;17.00;1.00
3876;DHT22;1953;51.222;6.624;2022-09-09T04:52:35;17.00;1.00
3876;DHT22;1953;51.222;6.624;2022-09-09T04:57:19;17.10;1.00
3876;DHT22;1953;51.222;6.624;2022-09-09T05:02:02;17.20;1.00
3876;DHT22;1953;51.222;6.624;2022-09-09T05:06:45;17.20;1.00
3876;DHT22;1953;51.222;6.624;2022-09-09T05:11:29;17.20;1.00
3876;DHT22;1953;51.222;6.624;2022-09-09T05:16:15;17.30;1.00
3876;DHT22;1953;51.222;6.624;2022-09-09T05:20:59;17.30;1.00
3876;DHT22;1953;51.222;6.624;2022-09-09T05:25:42;17.30;1.00
3876;DHT22;1953;51.222;6.624;2022-09-09T05:30:25;17.40;1.00
3876;DHT22;1953;51.222;6.624;2022-09-09T05:35:09;17.40;1.00
3876;DHT22;1953;51.222;6.624;2022-09-09T05:40:16;17.50;1.00
3876;DHT22;1953;51.222;6.624;2022-09-09T05:45:19;17.40;1.00
3876;DHT22;1953;51.222;6.624;2022-09-09T05:50:05;17.50;1.00
3876;DHT22;1953;51.222;6.624;2022-09-09T05:54:50;17.50;1.00
3876;DHT22;1953;51.222;6.624;2022-09-09T05:59:41;17.60;1.00
3876;DHT22;1953;51.222;6.624;2022-09-09T06:21:44;17.80;1.00
3876;DHT22;1953;51.222;6.624;2022-09-09T06:32:23;17.80;1.00
3876;DHT22;1953;51.222;6.624;2022-09-09T06:36:51;17.90;1.00
3876;DHT22;1953;51.222;6.624;2022-09-09T06:41:34;18.10;1.00
3876;DHT22;1953;51.222;6.624;2022-09-09T06:46:18;18.10;1.00
3876;DHT22;1953;51.222;6.624;2022-09-09T06:51:02;18.20;1.00
3876;DHT22;1953;51.222;6.624;2022-09-09T06:55:46;18.40;1.00
3876;DHT22;1953;51.222;6.624;2022-09-09T07:00:29;18.60;1.00
3876;DHT22;1953;51.222;6.624;2022-09-09T07:05:11;18.70;1.00
3876;DHT22;1953;51.222;6.624;2022-09-09T07:09:53;18.70;1.00
3876;DHT22;1953;51.222;6.624;2022-09-09T07:14:37;18.70;1.00
3876;DHT22;1953;51.222;6.624;2022-09-09T07:19:20;18.70;1.00
3876;DHT22;1953;51.222;6.624;2022-09-09T07:24:03;18.60;1.00
3876;DHT22;1953;51.222;6.624;2022-09-09T07:28:48;18.60;1.00
3876;DHT22;1953;51.222;6.624;2022-09-09T07:33:34;18.70;1.00
3876;DHT22;1953;51.222;6.624;2022-09-09T07:38:16;18.80;1.00
3876;DHT22;1953;51.222;6.624;2022-09-09T07:42:58;18.80;1.00
3876;DHT22;1953;51.222;6.624;2022-09-09T07:47:41;18.80;1.00
3876;DHT22;1953;51.222;6.624;2022-09-09T07:52:25;19.00;1.00
3876;DHT22;1953;51.222;6.624;2022-09-09T07:57:08;19.10;1.00
3876;DHT22;1953;51.222;6.624;2022-09-09T08:01:52;19.20;1.00
3876;DHT22;1953;51.222;6.624;2022-09-09T08:06:37;19.30;1.00
3876;DHT22;1953;51.222;6.624;2022-09-09T08:11:23;19.50;1.00
3876;DHT22;1953;51.222;6.624;2022-09-09T08:16:07;19.60;1.00
3876;DHT22;1953;51.222;6.624;2022-09-09T08:20:50;19.70;1.00
3876;DHT22;1953;51.222;6.624;2022-09-09T08:25:32;19.70;1.00
3876;DHT22;1953;51.222;6.624;2022-09-09T08:30:16;19.80;1.00
3876;DHT22;1953;51.222;6.624;2022-09-09T08:34:59;20.00;1.00
3876;DHT22;1953;51.222;6.624;2022-09-09T08:39:41;20.30;1.00
3876;DHT22;1953;51.222;6.624;2022-09-09T08:44:31;20.50;1.00
3876;DHT22;1953;51.222;6.624;2022-09-09T08:49:32;20.50;1.00
3876;DHT22;1953;51.222;6.624;2022-09-09T08:54:19;20.70;1.00
3876;DHT22;1953;51.222;6.624;2022-09-09T08:59:03;20.90;1.00
3876;DHT22;1953;51.222;6.624;2022-09-09T09:03:52;20.90;1.00
3876;DHT22;1953;51.222;6.624;2022-09-09T09:08:43;20.80;1.00
3876;DHT22;1953;51.222;6.624;2022-09-09T09:13:35;20.60;1.00
3876;DHT22;1953;51.222;6.624;2022-09-09T09:18:21;20.60;1.00
3876;DHT22;1953;51.222;6.624;2022-09-09T09:23:04;20.60;1.00
3876;DHT22;1953;51.222;6.624;2022-09-09T09:27:57;20.60;1.00
3876;DHT22;1953;51.222;6.624;2022-09-09T09:32:46;20.40;1.00
3876;DHT22;1953;51.222;6.624;2022-09-09T09:37:34;20.40;1.00
3876;DHT22;1953;51.222;6.624;2022-09-09T09:42:17;20.50;1.00
3876;DHT22;1953;51.222;6.624;2022-09-09T09:47:10;20.80;1.00
3876;DHT22;1953;51.222;6.624;2022-09-09T09:51:53;20.80;1.00
3876;DHT22;1953;51.222;6.624;2022-09-09T09:56:43;21.10;1.00
3876;DHT22;1953;51.222;6.624;2022-09-09T10:01:27;21.40;1.00
3876;DHT22;1953;51.222;6.624;2022-09-09T10:06:13;21.50;1.00
3876;DHT22;1953;51.222;6.624;2022-09-09T10:11:21;21.60;1.00
3876;DHT22;1953;51.222;6.624;2022-09-09T10:16:21;21.70;1.00
3876;DHT22;1953;51.222;6.624;2022-09-09T10:21:23;21.60;1.00
3876;DHT22;1953;51.222;6.624;2022-09-09T10:26:20;21.50;1.00
3876;DHT22;1953;51.222;6.624;2022-09-09T10:31:15;21.40;1.00
3876;DHT22;1953;51.222;6.624;2022-09-09T10:36:05;21.40;1.00
3876;DHT22;1953;51.222;6.624;2022-09-09T10:41:11;21.60;1.00
3876;DHT22;1953;51.222;6.624;2022-09-09T10:46:02;21.80;1.00
3876;DHT22;1953;51.222;6.624;2022-09-09T10:50:55;21.80;1.00
3876;DHT22;1953;51.222;6.624;2022-09-09T10:55:43;21.80;1.00
3876;DHT22;1953;51.222;6.624;2022-09-09T11:00:38;21.70;1.00
3876;DHT22;1953;51.222;6.624;2022-09-09T11:05:26;21.70;1.00
3876;DHT22;1953;51.222;6.624;2022-09-09T11:10:17;21.90;1.00
3876;DHT22;1953;51.222;6.624;2022-09-09T11:15:06;22.00;1.00
3876;DHT22;1953;51.222;6.624;2022-09-09T11:19:51;22.00;1.00
3876;DHT22;1953;51.222;6.624;2022-09-09T11:24:38;22.00;1.00
3876;DHT22;1953;51.222;6.624;2022-09-09T11:30:14;22.10;1.00
3876;DHT22;1953;51.222;6.624;2022-09-09T11:35:07;22.40;1.00
3876;DHT22;1953;51.222;6.624;2022-09-09T11:40:04;22.60;1.00
3876;DHT22;1953;51.222;6.624;2022-09-09T11:44:50;22.50;1.00
3876;DHT22;1953;51.222;6.624;2022-09-09T11:49:41;22.50;1.00
3876;DHT22;1953;51.222;6.624;2022-09-09T11:54:32;22.50;1.00
3876;DHT22;1953;51.222;6.624;2022-09-09T11:59:20;22.50;1.00
3876;DHT22;1953;51.222;6.624;2022-09-09T12:07:35;22.50;1.00
3876;DHT22;1953;51.222;6.624;2022-09-09T12:12:28;22.60;1.00
3876;DHT22;1953;51.222;6.624;2022-09-09T12:17:19;22.80;1.00
3876;DHT22;1953;51.222;6.624;2022-09-09T12:22:07;22.80;1.00
3876;DHT22;1953;51.222;6.624;2022-09-09T12:26:58;22.80;1.00
3876;DHT22;1953;51.222;6.624;2022-09-09T12:31:48;22.60;1.00
3876;DHT22;1953;51.222;6.624;2022-09-09T12:36:33;22.40;1.00
3876;DHT22;1953;51.222;6.624;2022-09-09T12:41:21;22.20;1.00
3876;DHT22;1953;51.222;6.624;2022-09-09T12:46:20;21.90;1.00
3876;DHT22;1953;51.222;6.624;2022-09-09T12:51:19;21.60;1.00
3876;DHT22;1953;51.222;6.624;2022-09-09T12:56:05;21.00;1.00
3876;DHT22;1953;51.222;6.624;2022-09-09T13:00:50;20.50;1.00
3876;DHT22;1953;51.222;6.624;2022-09-09T13:05:36;20.80;1.00
3876;DHT22;1953;51.222;6.624;2022-09-09T13:10:26;21.50;1.00
3876;DHT22;1953;51.222;6.624;2022-09-09T13:15:16;21.50;1.00
3876;DHT22;1953;51.222;6.624;2022-09-09T13:20:01;21.70;1.00
3876;DHT22;1953;51.222;6.624;2022-09-09T13:24:46;21.70;1.00
3876;DHT22;1953;51.222;6.624;2022-09-09T13:29:29;22.40;1.00
3876;DHT22;1953;51.222;6.624;2022-09-09T13:34:13;22.80;1.00
3876;DHT22;1953;51.222;6.624;2022-09-09T13:38:57;23.00;1.00
3876;DHT22;1953;51.222;6.624;2022-09-09T13:43:45;22.90;1.00
3876;DHT22;1953;51.222;6.624;2022-09-09T13:48:29;22.40;1.00
3876;DHT22;1953;51.222;6.624;2022-09-09T13:53:12;22.00;1.00
3876;DHT22;1953;51.222;6.624;2022-09-09T13:57:56;22.30;1.00
3876;DHT22;1953;51.222;6.624;2022-09-09T14:02:42;22.80;1.00
3876;DHT22;1953;51.222;6.624;2022-09-09T14:07:25;22.80;1.00
3876;DHT22;1953;51.222;6.624;2022-09-09T14:12:09;23.10;1.00
3876;DHT22;1953;51.222;6.624;2022-09-09T14:16:55;23.00;1.00
3876;DHT22;1953;51.222;6.624;2022-09-09T14:21:40;22.50;1.00
3876;DHT22;1953;51.222;6.624;2022-09-09T14:26:22;21.60;1.00
3876;DHT22;1953;51.222;6.624;2022-09-09T14:31:05;20.60;1.00
3876;DHT22;1953;51.222;6.624;2022-09-09T14:35:47;20.00;1.00
3876;DHT22;1953;51.222;6.624;2022-09-09T14:40:31;19.70;1.00
3876;DHT22;1953;51.222;6.624;2022-09-09T14:45:15;19.20;1.00
3876;DHT22;1953;51.222;6.624;2022-09-09T14:49:57;18.80;1.00
3876;DHT22;1953;51.222;6.624;2022-09-09T14:54:39;18.70;1.00
3876;DHT22;1953;51.222;6.624;2022-09-09T14:59:24;18.70;1.00
3876;DHT22;1953;51.222;6.624;2022-09-09T15:04:10;18.80;1.00
3876;DHT22;1953;51.222;6.624;2022-09-09T15:08:54;19.00;1.00
3876;DHT22;1953;51.222;6.624;2022-09-09T15:13:40;19.10;1.00
3876;DHT22;1953;51.222;6.624;2022-09-09T15:18:28;19.50;1.00
3876;DHT22;1953;51.222;6.624;2022-09-09T15:23:10;19.90;1.00
3876;DHT22;1953;51.222;6.624;2022-09-09T15:27:53;20.40;1.00
3876;DHT22;1953;51.222;6.624;2022-09-09T15:32:36;21.10;1.00
3876;DHT22;1953;51.222;6.624;2022-09-09T15:37:21;21.90;1.00
3876;DHT22;1953;51.222;6.624;2022-09-09T15:42:04;22.20;1.00
3876;DHT22;1953;51.222;6.624;2022-09-09T15:46:49;22.40;1.00
3876;DHT22;1953;51.222;6.624;2022-09-09T15:51:32;22.50;1.00
3876;DHT22;1953;51.222;6.624;2022-09-09T15:56:16;22.30;1.00
3876;DHT22;1953;51.222;6.624;2022-09-09T16:01:02;22.80;1.00
3876;DHT22;1953;51.222;6.624;2022-09-09T16:05:50;22.40;1.00
3876;DHT22;1953;51.222;6.624;2022-09-09T16:10:33;21.80;1.00
3876;DHT22;1953;51.222;6.624;2022-09-09T16:15:16;21.40;1.00
3876;DHT22;1953;51.222;6.624;2022-09-09T16:20:01;21.30;1.00
3876;DHT22;1953;51.222;6.624;2022-09-09T16:24:44;21.20;1.00
3876;DHT22;1953;51.222;6.624;2022-09-09T16:29:27;21.00;1.00
3876;DHT22;1953;51.222;6.624;2022-09-09T16:34:11;20.80;1.00
3876;DHT22;1953;51.222;6.624;2022-09-09T16:38:55;20.60;1.00
3876;DHT22;1953;51.222;6.624;2022-09-09T16:43:48;20.60;1.00
3876;DHT22;1953;51.222;6.624;2022-09-09T16:48:34;20.80;1.00
3876;DHT22;1953;51.222;6.624;2022-09-09T16:53:17;20.90;1.00
3876;DHT22;1953;51.222;6.624;2022-09-09T16:58:00;20.90;1.00
3876;DHT22;1953;51.222;6.624;2022-09-09T17:02:43;20.80;1.00
3876;DHT22;1953;51.222;6.624;2022-09-09T17:07:26;20.70;1.00
3876;DHT22;1953;51.222;6.624;2022-09-09T17:12:10;20.60;1.00
3876;DHT22;1953;51.222;6.624;2022-09-09T17:16:53;20.60;1.00
3876;DHT22;1953;51.222;6.624;2022-09-09T17:21:36;20.50;1.00
3876;DHT22;1953;51.222;6.624;2022-09-09T17:26:21;20.50;1.00
3876;DHT22;1953;51.222;6.624;2022-09-09T17:31:06;20.40;1.00
3876;DHT22;1953;51.222;6.624;2022-09-09T17:35:49;20.30;1.00
3876;DHT22;1953;51.222;6.624;2022-09-09T17:40:32;20.20;1.00
3876;DHT22;1953;51.222;6.624;2022-09-09T17:45:14;20.00;1.00
3876;DHT22;1953;51.222;6.624;2022-09-09T17:49:59;20.00;1.00
3876;DHT22;1953;51.222;6.624;2022-09-09T17:54:41;19.80;1.00
3876;DHT22;1953;51.222;6.624;2022-09-09T17:59:23;19.80;1.00
3876;DHT22;1953;51.222;6.624;2022-09-09T18:04:09;19.70;1.00
3876;DHT22;1953;51.222;6.624;2022-09-09T18:08:57;19.60;1.00
3876;DHT22;1953;51.222;6.624;2022-09-09T18:13:39;19.70;1.00
3876;DHT22;1953;51.222;6.624;2022-09-09T18:18:22;19.60;1.00
3876;DHT22;1953;51.222;6.624;2022-09-09T18:23:04;19.50;1.00
3876;DHT22;1953;51.222;6.624;2022-09-09T18:27:48;19.40;1.00
3876;DHT22;1953;51.222;6.624;2022-09-09T18:32:31;19.30;1.00
3876;DHT22;1953;51.222;6.624;2022-09-09T18:37:14;19.30;1.00
3876;DHT22;1953;51.222;6.624;2022-09-09T18:41:58;19.20;1.00
3876;DHT22;1953;51.222;6.624;2022-09-09T18:46:43;19.20;1.00
3876;DHT22;1953;51.222;6.624;2022-09-09T18:51:27;19.20;1.00
3876;DHT22;1953;51.222;6.624;2022-09-09T18:56:11;19.10;1.00
3876;DHT22;1953;51.222;6.624;2022-09-09T19:00:54;19.00;1.00
3876;DHT22;1953;51.222;6.624;2022-09-09T19:05:38;19.00;1.00
3876;DHT22;1953;51.222;6.624;2022-09-09T19:10:21;19.00;1.00
3876;DHT22;1953;51.222;6.624;2022-09-09T19:15:04;19.00;1.00
3876;DHT22;1953;51.222;6.624;2022-09-09T19:19:46;18.90;1.00
3876;DHT22;1953;51.222;6.624;2022-09-09T19:24:33;18.90;1.00
3876;DHT22;1953;51.222;6.624;2022-09-09T19:29:19;18.80;1.00
3876;DHT22;1953;51.222;6.624;2022-09-09T19:34:02;18.80;1.00
3876;DHT22;1953;51.222;6.624;2022-09-09T19:38:45;18.90;1.00
3876;DHT22;1953;51.222;6.624;2022-09-09T19:43:29;18.90;1.00
3876;DHT22;1953;51.222;6.624;2022-09-09T19:48:11;18.90;1.00
3876;DHT22;1953;51.222;6.624;2022-09-09T19:52:54;18.80;1.00
3876;DHT22;1953;51.222;6.624;2022-09-09T19:57:37;18.70;1.00
3876;DHT22;1953;51.222;6.624;2022-09-09T20:02:21;18.60;1.00
3876;DHT22;1953;51.222;6.624;2022-09-09T20:07:05;18.50;1.00
3876;DHT22;1953;51.222;6.624;2022-09-09T20:11:48;18.50;1.00
3876;DHT22;1953;51.222;6.624;2022-09-09T20:16:32;18.40;1.00
3876;DHT22;1953;51.222;6.624;2022-09-09T20:21:18;18.40;1.00
3876;DHT22;1953;51.222;6.624;2022-09-09T20:26:04;18.40;1.00
3876;DHT22;1953;51.222;6.624;2022-09-09T20:30:47;18.50;1.00
3876;DHT22;1953;51.222;6.624;2022-09-09T20:35:31;18.50;1.00
3876;DHT22;1953;51.222;6.624;2022-09-09T20:40:18;18.40;1.00
3876;DHT22;1953;51.222;6.624;2022-09-09T20:45:01;18.40;1.00
3876;DHT22;1953;51.222;6.624;2022-09-09T20:49:43;18.40;1.00
3876;DHT22;1953;51.222;6.624;2022-09-09T20:54:27;18.40;1.00
3876;DHT22;1953;51.222;6.624;2022-09-09T20:59:13;18.30;1.00
3876;DHT22;1953;51.222;6.624;2022-09-09T21:03:58;18.30;1.00
3876;DHT22;1953;51.222;6.624;2022-09-09T21:08:41;18.30;1.00
3876;DHT22;1953;51.222;6.624;2022-09-09T21:13:24;18.30;1.00
3876;DHT22;1953;51.222;6.624;2022-09-09T21:18:08;18.30;1.00
3876;DHT22;1953;51.222;6.624;2022-09-09T21:22:51;18.20;1.00
3876;DHT22;1953;51.222;6.624;2022-09-09T21:27:34;18.20;1.00
3876;DHT22;1953;51.222;6.624;2022-09-09T21:32:16;18.20;1.00
3876;DHT22;1953;51.222;6.624;2022-09-09T21:37:00;18.10;1.00
3876;DHT22;1953;51.222;6.624;2022-09-09T21:41:43;18.00;1.00
3876;DHT22;1953;51.222;6.624;2022-09-09T21:46:26;18.00;1.00
3876;DHT22;1953;51.222;6.624;2022-09-09T21:51:11;17.90;1.00
3876;DHT22;1953;51.222;6.624;2022-09-09T21:56:00;17.80;1.00
3876;DHT22;1953;51.222;6.624;2022-09-09T22:00:43;17.80;1.00
3876;DHT22;1953;51.222;6.624;2022-09-09T22:05:26;17.80;1.00
3876;DHT22;1953;51.222;6.624;2022-09-09T22:10:09;17.70;1.00
3876;DHT22;1953;51.222;6.624;2022-09-09T22:14:53;17.70;1.00
3876;DHT22;1953;51.222;6.624;2022-09-09T22:19:36;17.70;1.00
3876;DHT22;1953;51.222;6.624;2022-09-09T22:24:19;17.70;1.00
3876;DHT22;1953;51.222;6.624;2022-09-09T22:29:02;17.70;1.00
3876;DHT22;1953;51.222;6.624;2022-09-09T22:33:46;17.70;1.00
3876;DHT22;1953;51.222;6.624;2022-09-09T22:38:28;17.60;1.00
3876;DHT22;1953;51.222;6.624;2022-09-09T22:43:17;17.60;1.00
3876;DHT22;1953;51.222;6.624;2022-09-09T22:48:01;17.60;1.00
3876;DHT22;1953;51.222;6.624;2022-09-09T22:52:46;17.60;1.00
3876;DHT22;1953;51.222;6.624;2022-09-09T22:57:28;17.60;1.00
3876;DHT22;1953;51.222;6.624;2022-09-09T23:02:11;17.60;1.00
3876;DHT22;1953;51.222;6.624;2022-09-09T23:06:54;17.50;1.00
3876;DHT22;1953;51.222;6.624;2022-09-09T23:11:38;17.50;1.00
3876;DHT22;1953;51.222;6.624;2022-09-09T23:16:24;17.50;1.00
3876;DHT22;1953;51.222;6.624;2022-09-09T23:21:06;17.50;1.00
3876;DHT22;1953;51.222;6.624;2022-09-09T23:25:49;17.40;1.00
3876;DHT22;1953;51.222;6.624;2022-09-09T23:30:33;17.40;1.00
3876;DHT22;1953;51.222;6.624;2022-09-09T23:35:15;17.40;1.00
3876;DHT22;1953;51.222;6.624;2022-09-09T23:39:57;17.50;1.00
3876;DHT22;1953;51.222;6.624;2022-09-09T23:44:40;17.50;1.00
3876;DHT22;1953;51.222;6.624;2022-09-09T23:49:24;17.40;1.00
3876;DHT22;1953;51.222;6.624;2022-09-09T23:54:07;17.40;1.00
3876;DHT22;1953;51.222;6.624;2022-09-09T23:58:51;17.30;1.00
